createdAt,value
2023-05-12T00:00:56.251Z,12.11
2023-05-12T00:03:25.453Z,12.16
2023-05-12T00:05:54.679Z,12.17
2023-05-12T00:08:23.829Z,12.14
2023-05-12T00:10:54.337Z,12.16
2023-05-12T00:13:24.073Z,12.18
2023-05-12T00:15:55.431Z,12.18
2023-05-12T00:18:24.998Z,12.20
2023-05-12T00:20:55.163Z,12.28
2023-05-12T00:23:24.476Z,12.26
2023-05-12T00:25:54.884Z,12.28
2023-05-12T00:28:23.951Z,12.25
2023-05-12T00:30:53.178Z,12.26
2023-05-12T00:33:22.300Z,12.29
2023-05-12T00:35:51.350Z,12.27
2023-05-12T00:38:20.422Z,12.29
2023-05-12T00:40:49.577Z,12.25
2023-05-12T00:43:20.016Z,12.27
2023-05-12T00:45:49.567Z,12.28
2023-05-12T00:48:19.218Z,12.28
2023-05-12T00:50:48.460Z,12.30
2023-05-12T00:53:17.650Z,12.35
2023-05-12T00:55:47.459Z,12.32
2023-05-12T00:58:16.835Z,12.32
2023-05-12T01:00:47.410Z,12.32
2023-05-12T01:03:17.095Z,12.38
2023-05-12T01:05:50.608Z,12.38
2023-05-12T01:08:21.827Z,12.40
2023-05-12T01:10:51.128Z,12.41
2023-05-12T01:13:21.568Z,12.45
2023-05-12T01:15:54.901Z,12.53
2023-05-12T01:18:25.345Z,12.53
2023-05-12T01:20:56.362Z,12.56
2023-05-12T01:23:34.474Z,12.55
2023-05-12T01:26:07.746Z,12.53
2023-05-12T01:28:38.746Z,12.53
2023-05-12T01:31:09.516Z,12.57
2023-05-12T01:33:40.803Z,12.57
2023-05-12T01:36:10.436Z,12.52
2023-05-12T01:38:39.735Z,12.52
2023-05-12T01:41:11.327Z,12.57
2023-05-12T01:43:40.684Z,12.52
2023-05-12T01:46:10.878Z,12.42
2023-05-12T01:48:41.566Z,12.48
2023-05-12T01:51:11.481Z,12.56
2023-05-12T01:53:40.612Z,12.61
2023-05-12T01:56:11.047Z,12.62
2023-05-12T01:58:40.120Z,12.65
2023-05-12T02:01:09.247Z,12.66
2023-05-12T02:03:38.884Z,12.69
2023-05-12T02:06:13.486Z,12.72
2023-05-12T02:08:42.695Z,12.68
2023-05-12T02:11:13.222Z,12.62
2023-05-12T02:13:42.319Z,12.69
2023-05-12T02:16:11.604Z,12.69
2023-05-12T02:18:40.856Z,12.66
2023-05-12T02:21:10.033Z,12.70
2023-05-12T02:23:39.163Z,12.69
2023-05-12T02:26:08.285Z,12.70
2023-05-12T02:28:39.775Z,12.68
2023-05-12T02:31:08.984Z,12.73
2023-05-12T02:33:38.160Z,12.72
2023-05-12T02:36:08.317Z,12.75
2023-05-12T02:38:37.424Z,12.81
2023-05-12T02:41:06.734Z,12.75
2023-05-12T02:43:36.311Z,12.77
2023-05-12T02:46:07.412Z,12.74
2023-05-12T02:48:36.933Z,12.69
2023-05-12T02:51:06.544Z,12.69
2023-05-12T02:53:35.647Z,12.69
2023-05-12T02:56:04.868Z,12.69
2023-05-12T02:58:35.162Z,12.69
2023-05-12T03:01:10.763Z,12.70
2023-05-12T03:03:42.673Z,12.67
2023-05-12T03:06:12.161Z,12.70
2023-05-12T03:08:41.383Z,12.67
2023-05-12T03:11:10.578Z,12.63
2023-05-12T03:13:39.719Z,12.63
2023-05-12T03:16:09.560Z,12.68
2023-05-12T03:18:38.632Z,12.70
2023-05-12T03:21:09.853Z,12.61
2023-05-12T03:23:38.966Z,12.63
2023-05-12T03:26:08.079Z,12.68
2023-05-12T03:28:37.619Z,12.66
2023-05-12T03:31:06.945Z,12.70
2023-05-12T03:33:36.049Z,12.67
2023-05-12T03:36:05.797Z,12.74
2023-05-12T03:38:36.414Z,12.73
2023-05-12T03:41:06.192Z,12.74
2023-05-12T03:43:36.252Z,12.76
2023-05-12T03:46:06.032Z,12.72
2023-05-12T03:48:35.366Z,12.77
2023-05-12T03:51:04.891Z,12.77
2023-05-12T03:53:35.456Z,12.87
2023-05-12T03:56:08.035Z,12.86
2023-05-12T03:58:37.151Z,12.89
2023-05-12T04:01:07.134Z,12.91
2023-05-12T04:03:36.575Z,12.91
2023-05-12T04:06:06.203Z,12.99
2023-05-12T04:08:36.695Z,12.97
2023-05-12T04:11:05.904Z,12.99
2023-05-12T04:13:35.000Z,13.01
2023-05-12T04:16:04.386Z,13.00
2023-05-12T04:18:33.530Z,13.02
2023-05-12T04:21:02.646Z,13.05
2023-05-12T04:23:31.710Z,13.08
2023-05-12T04:26:05.112Z,13.09
2023-05-12T04:28:34.253Z,13.14
2023-05-12T04:31:06.397Z,13.12
2023-05-12T04:33:36.927Z,13.18
2023-05-12T04:36:07.477Z,13.22
2023-05-12T04:38:37.594Z,13.25
2023-05-12T04:41:08.101Z,13.31
2023-05-12T04:46:09.566Z,13.29
2023-05-12T04:48:41.896Z,13.42
2023-05-12T04:51:10.993Z,13.46
2023-05-12T04:53:40.052Z,13.56
2023-05-12T04:56:10.574Z,13.53
2023-05-12T04:58:41.090Z,13.57
2023-05-12T05:01:12.261Z,13.64
2023-05-12T05:03:42.055Z,13.74
2023-05-12T05:06:11.683Z,13.85
2023-05-12T05:08:41.721Z,13.87
2023-05-12T05:11:12.296Z,13.94
2023-05-12T05:13:41.527Z,14.00
2023-05-12T05:16:10.802Z,14.04
2023-05-12T05:18:42.498Z,13.96
2023-05-12T05:21:11.815Z,14.07
2023-05-12T05:23:41.689Z,14.21
2023-05-12T05:26:13.064Z,14.35
2023-05-12T05:28:42.439Z,14.37
2023-05-12T05:31:17.717Z,14.42
2023-05-12T05:33:46.912Z,14.53
2023-05-12T05:36:16.407Z,14.62
2023-05-12T05:38:45.537Z,14.67
2023-05-12T05:41:15.929Z,14.80
2023-05-12T05:43:45.117Z,14.92
2023-05-12T05:46:15.225Z,15.04
2023-05-12T05:48:44.427Z,15.11
2023-05-12T05:51:15.005Z,15.14
2023-05-12T05:53:44.270Z,15.18
2023-05-12T05:56:15.586Z,15.32
2023-05-12T05:58:44.785Z,15.33
2023-05-12T06:01:15.446Z,15.33
2023-05-12T06:03:45.145Z,15.47
2023-05-12T06:06:14.472Z,15.63
2023-05-12T06:08:43.873Z,15.65
2023-05-12T06:11:17.153Z,15.84
2023-05-12T06:13:46.918Z,16.05
2023-05-12T06:16:16.028Z,16.26
2023-05-12T06:18:45.201Z,16.18
2023-05-12T06:21:14.853Z,16.30
2023-05-12T06:23:43.990Z,16.30
2023-05-12T06:26:17.191Z,16.52
2023-05-12T06:28:46.422Z,16.42
2023-05-12T06:31:15.715Z,16.53
2023-05-12T06:33:44.933Z,16.40
2023-05-12T06:36:15.004Z,16.67
2023-05-12T06:38:44.161Z,16.41
2023-05-12T06:41:16.893Z,16.73
2023-05-12T06:43:46.120Z,16.71
2023-05-12T06:46:16.105Z,16.81
2023-05-12T06:48:45.281Z,16.94
2023-05-12T06:51:14.555Z,16.82
2023-05-12T06:53:43.619Z,16.92
2023-05-12T06:56:16.839Z,17.05
2023-05-12T06:58:47.975Z,17.10
2023-05-12T07:01:17.205Z,17.01
2023-05-12T07:03:46.456Z,17.11
2023-05-12T07:06:15.668Z,17.33
2023-05-12T07:08:44.831Z,17.59
2023-05-12T07:11:19.872Z,17.59
2023-05-12T07:13:51.374Z,18.05
2023-05-12T07:16:21.348Z,18.03
2023-05-12T07:18:50.519Z,17.87
2023-05-12T07:21:19.766Z,17.88
2023-05-12T07:23:48.877Z,17.82
2023-05-12T07:26:18.621Z,17.79
2023-05-12T07:28:49.174Z,18.06
2023-05-12T07:31:18.307Z,18.16
2023-05-12T07:33:47.473Z,18.42
2023-05-12T07:36:16.530Z,18.14
2023-05-12T07:38:45.667Z,18.74
2023-05-12T07:41:15.383Z,18.69
2023-05-12T07:43:44.503Z,18.54
2023-05-12T07:46:15.037Z,18.39
2023-05-12T07:48:44.154Z,18.88
2023-05-12T07:51:13.247Z,19.23
2023-05-12T07:53:42.329Z,19.43
2023-05-12T07:56:11.413Z,19.16
2023-05-12T07:58:40.480Z,18.66
2023-05-12T08:01:10.226Z,18.86
2023-05-12T08:03:41.096Z,19.45
2023-05-12T08:06:10.582Z,20.24
2023-05-12T08:08:39.654Z,20.34
2023-05-12T08:11:08.695Z,20.32
2023-05-12T08:13:38.520Z,20.48
2023-05-12T08:16:07.658Z,20.86
2023-05-12T08:18:36.839Z,20.28
2023-05-12T08:21:07.381Z,20.88
2023-05-12T08:23:37.658Z,21.40
2023-05-12T08:26:06.921Z,21.24
2023-05-12T08:28:36.039Z,21.82
2023-05-12T08:31:05.429Z,22.16
2023-05-12T08:33:36.626Z,22.29
2023-05-12T08:36:07.542Z,22.47
2023-05-12T08:38:36.696Z,22.20
2023-05-12T08:41:13.984Z,21.83
2023-05-12T08:43:46.113Z,22.49
2023-05-12T08:46:15.600Z,21.67
2023-05-12T08:48:48.117Z,20.99
2023-05-12T08:51:20.242Z,22.86
2023-05-12T08:53:51.095Z,22.72
2023-05-12T08:58:56.440Z,22.81
2023-05-12T09:01:27.007Z,23.32
2023-05-12T09:03:56.374Z,23.00
2023-05-12T09:06:27.028Z,22.64
2023-05-12T09:08:56.144Z,23.35
2023-05-12T09:11:25.385Z,23.55
2023-05-12T09:14:02.811Z,22.31
2023-05-12T09:16:34.058Z,22.54
2023-05-12T09:19:06.721Z,23.25
2023-05-12T09:21:37.596Z,23.16
2023-05-12T09:24:08.842Z,22.24
2023-05-12T09:26:48.116Z,23.06
2023-05-12T09:29:27.789Z,21.82
2023-05-12T09:31:59.500Z,23.13
2023-05-12T09:34:30.591Z,23.84
2023-05-12T09:37:03.529Z,23.38
2023-05-12T09:39:33.182Z,23.55
2023-05-12T09:42:02.504Z,23.28
2023-05-12T09:44:33.345Z,23.68
2023-05-12T09:47:08.047Z,22.78
2023-05-12T09:49:37.176Z,23.76
2023-05-12T09:52:07.957Z,23.66
2023-05-12T09:54:40.553Z,24.01
2023-05-12T09:57:12.487Z,24.42
2023-05-12T09:59:43.886Z,23.99
2023-05-12T10:02:16.378Z,24.16
2023-05-12T10:04:48.732Z,24.19
2023-05-12T10:07:23.945Z,23.30
2023-05-12T10:09:54.467Z,23.20
2023-05-12T10:12:24.035Z,22.48
2023-05-12T10:14:54.084Z,23.95
2023-05-12T10:17:24.296Z,24.21
2023-05-12T10:19:55.549Z,22.90
2023-05-12T10:22:27.684Z,22.37
2023-05-12T10:24:58.095Z,22.66
2023-05-12T10:27:27.906Z,24.16
2023-05-12T10:29:57.347Z,23.95
2023-05-12T10:32:27.019Z,22.94
2023-05-12T10:34:56.395Z,22.70
2023-05-12T10:37:29.908Z,23.42
2023-05-12T10:40:01.033Z,24.14
2023-05-12T10:42:37.978Z,24.31
2023-05-12T10:45:18.146Z,22.76
2023-05-12T10:47:48.115Z,24.31
2023-05-12T10:50:28.402Z,24.70
2023-05-12T10:52:59.084Z,24.83
2023-05-12T10:55:36.546Z,24.17
2023-05-12T10:58:08.587Z,24.16
2023-05-12T11:00:50.853Z,24.37
2023-05-12T11:03:27.164Z,24.49
2023-05-12T11:06:07.258Z,25.22
2023-05-12T11:08:39.785Z,25.24
2023-05-12T11:11:09.270Z,25.60
2023-05-12T11:13:38.621Z,25.16
2023-05-12T11:16:12.860Z,25.13
2023-05-12T11:18:42.116Z,26.04
2023-05-12T11:21:12.779Z,24.59
2023-05-12T11:23:43.179Z,24.82
2023-05-12T11:26:19.197Z,24.56
2023-05-12T11:28:48.269Z,24.95
2023-05-12T11:31:20.702Z,24.89
2023-05-12T11:33:58.543Z,24.78
2023-05-12T11:36:38.508Z,24.79
2023-05-12T11:39:13.866Z,24.32
2023-05-12T11:41:43.020Z,24.83
2023-05-12T11:44:16.707Z,24.64
2023-05-12T11:46:56.663Z,24.82
2023-05-12T11:49:25.918Z,24.39
2023-05-12T11:51:56.212Z,24.25
2023-05-12T11:54:28.770Z,25.09
2023-05-12T11:56:59.031Z,25.44
2023-05-12T11:59:29.766Z,24.77
2023-05-12T12:01:59.541Z,25.20
2023-05-12T12:04:36.351Z,25.29
2023-05-12T12:07:06.316Z,25.59
2023-05-12T12:09:38.240Z,25.28
2023-05-12T12:12:08.794Z,25.29
2023-05-12T12:14:41.334Z,25.10
2023-05-12T12:17:10.367Z,25.11
2023-05-12T12:19:39.585Z,24.59
2023-05-12T12:22:08.671Z,25.14
2023-05-12T12:24:39.065Z,24.81
2023-05-12T12:27:08.120Z,25.25
2023-05-12T12:29:37.201Z,25.20
2023-05-12T12:32:06.811Z,25.74
2023-05-12T12:34:36.336Z,25.40
2023-05-12T12:37:06.482Z,25.28
2023-05-12T12:39:35.661Z,24.75
2023-05-12T12:42:06.960Z,25.12
2023-05-12T12:44:36.108Z,24.18
2023-05-12T12:47:05.665Z,25.26
2023-05-12T12:49:34.789Z,24.85
2023-05-12T12:52:03.873Z,25.18
2023-05-12T12:54:33.132Z,25.68
2023-05-12T12:57:02.363Z,25.78
2023-05-12T12:59:33.079Z,25.35
2023-05-12T13:02:02.576Z,24.46
2023-05-12T13:04:31.883Z,24.45
2023-05-12T13:07:00.979Z,24.45
2023-05-12T13:09:30.121Z,24.28
2023-05-12T13:11:59.571Z,24.78
2023-05-12T13:14:28.807Z,24.69
2023-05-12T13:16:59.371Z,25.28
2023-05-12T13:19:28.500Z,24.56
2023-05-12T13:21:57.588Z,25.27
2023-05-12T13:24:26.743Z,25.09
2023-05-12T13:26:56.542Z,25.50
2023-05-12T13:29:25.709Z,25.46
2023-05-12T13:31:54.845Z,25.11
2023-05-12T13:34:25.785Z,24.84
2023-05-12T13:36:54.895Z,25.55
2023-05-12T13:39:23.964Z,24.26
2023-05-12T13:41:53.117Z,24.89
2023-05-12T13:44:22.229Z,25.14
2023-05-12T13:46:51.448Z,24.65
2023-05-12T13:49:20.737Z,25.04
2023-05-12T13:51:51.188Z,25.36
2023-05-12T13:54:20.292Z,24.62
2023-05-12T13:56:49.403Z,24.37
2023-05-12T13:59:18.521Z,25.08
2023-05-12T14:01:47.737Z,24.68
2023-05-12T14:04:16.953Z,24.02
2023-05-12T14:06:46.805Z,24.37
2023-05-12T14:09:17.509Z,23.83
2023-05-12T14:11:46.632Z,24.39
2023-05-12T14:14:15.747Z,24.52
2023-05-12T14:16:44.893Z,24.33
2023-05-12T14:19:14.151Z,24.26
2023-05-12T14:21:43.283Z,23.55
2023-05-12T14:24:12.342Z,24.28
2023-05-12T14:26:42.821Z,24.08
2023-05-12T14:29:11.958Z,23.75
2023-05-12T14:31:41.272Z,24.32
2023-05-12T14:34:11.784Z,24.27
2023-05-12T14:36:40.892Z,24.22
2023-05-12T14:39:10.029Z,24.04
2023-05-12T14:41:39.259Z,24.48
2023-05-12T14:44:09.670Z,24.04
2023-05-12T14:46:39.046Z,24.01
2023-05-12T14:49:11.084Z,23.37
2023-05-12T14:51:40.288Z,23.46
2023-05-12T14:54:18.413Z,23.71
2023-05-12T14:56:53.715Z,23.39
2023-05-12T14:59:24.172Z,23.26
2023-05-12T15:01:53.349Z,23.56
2023-05-12T15:04:22.543Z,23.55
2023-05-12T15:06:51.682Z,23.47
2023-05-12T15:09:20.908Z,23.27
2023-05-12T15:11:51.438Z,23.26
2023-05-12T15:14:20.571Z,23.54
2023-05-12T15:16:50.995Z,23.31
2023-05-12T15:19:21.346Z,22.92
2023-05-12T15:21:50.521Z,22.94
2023-05-12T15:24:19.607Z,22.92
2023-05-12T15:26:48.651Z,23.31
2023-05-12T15:29:17.731Z,23.20
2023-05-12T15:31:48.680Z,22.77
2023-05-12T15:34:19.228Z,22.71
2023-05-12T15:36:48.827Z,22.82
2023-05-12T15:39:17.946Z,22.75
2023-05-12T15:41:47.072Z,23.16
2023-05-12T15:44:16.729Z,23.07
2023-05-12T15:46:45.873Z,23.00
2023-05-12T15:49:14.941Z,22.39
2023-05-12T15:51:45.517Z,22.96
2023-05-12T15:54:14.608Z,22.98
2023-05-12T15:56:43.836Z,22.22
2023-05-12T15:59:13.033Z,22.24
2023-05-12T16:01:42.196Z,22.51
2023-05-12T16:04:11.277Z,22.35
2023-05-12T16:06:40.575Z,22.26
2023-05-12T16:09:11.064Z,21.79
2023-05-12T16:11:40.582Z,21.83
2023-05-12T16:14:09.831Z,21.89
2023-05-12T16:16:42.908Z,21.63
2023-05-12T16:19:12.085Z,21.37
2023-05-12T16:21:42.451Z,21.73
2023-05-12T16:24:13.155Z,22.11
2023-05-12T16:26:42.444Z,21.59
2023-05-12T16:29:11.613Z,21.21
2023-05-12T16:31:42.546Z,21.31
2023-05-12T16:34:11.754Z,21.56
2023-05-12T16:36:41.228Z,21.38
2023-05-12T16:39:10.895Z,21.70
2023-05-12T16:41:41.343Z,21.68
2023-05-12T16:44:10.417Z,21.30
2023-05-12T16:46:41.610Z,20.95
2023-05-12T16:49:10.916Z,20.78
2023-05-12T16:51:40.455Z,21.11
2023-05-12T16:54:09.944Z,20.92
2023-05-12T16:56:40.550Z,21.40
2023-05-12T16:59:09.709Z,20.90
2023-05-12T17:01:39.526Z,20.50
2023-05-12T17:04:11.714Z,20.79
2023-05-12T17:06:40.919Z,20.97
2023-05-12T17:09:10.186Z,20.88
2023-05-12T17:11:40.764Z,20.70
2023-05-12T17:14:10.128Z,20.61
2023-05-12T17:16:39.662Z,20.50
2023-05-12T17:21:41.389Z,20.86
2023-05-12T17:24:11.196Z,20.41
2023-05-12T17:26:41.843Z,20.66
2023-05-12T17:29:10.914Z,20.25
2023-05-12T17:31:40.377Z,20.24
2023-05-12T17:34:09.537Z,20.26
2023-05-12T17:36:38.609Z,20.02
2023-05-12T17:39:07.685Z,19.87
2023-05-12T17:41:36.744Z,19.81
2023-05-12T17:44:07.270Z,19.32
2023-05-12T17:46:36.389Z,19.51
2023-05-12T17:49:05.577Z,19.34
2023-05-12T17:51:35.402Z,19.12
2023-05-12T17:54:04.701Z,19.10
2023-05-12T17:56:33.974Z,18.77
2023-05-12T17:59:03.620Z,18.84
2023-05-12T18:01:34.279Z,18.76
2023-05-12T18:04:03.606Z,18.72
2023-05-12T18:06:33.136Z,18.44
2023-05-12T18:09:02.695Z,18.13
2023-05-12T18:11:31.817Z,17.94
2023-05-12T18:14:02.501Z,17.85
2023-05-12T18:16:33.617Z,17.77
2023-05-12T18:19:03.520Z,17.78
2023-05-12T18:21:32.741Z,17.74
2023-05-12T18:24:01.881Z,17.62
2023-05-12T18:26:31.573Z,17.51
2023-05-12T18:29:00.881Z,17.40
2023-05-12T18:31:30.372Z,17.41
2023-05-12T18:34:00.875Z,17.30
2023-05-12T18:36:30.085Z,17.27
2023-05-12T18:38:59.112Z,17.05
2023-05-12T18:41:28.441Z,16.99
2023-05-12T18:43:57.585Z,16.91
2023-05-12T18:46:26.757Z,16.78
2023-05-12T18:48:55.921Z,16.82
2023-05-12T18:51:26.517Z,16.73
2023-05-12T18:53:56.399Z,16.67
2023-05-12T18:56:25.616Z,16.66
2023-05-12T18:58:54.733Z,16.59
2023-05-12T19:01:24.306Z,16.60
2023-05-12T19:03:53.558Z,16.43
2023-05-12T19:06:22.615Z,16.37
2023-05-12T19:08:53.204Z,16.33
2023-05-12T19:11:22.457Z,16.27
2023-05-12T19:13:52.368Z,16.14
2023-05-12T19:16:23.629Z,16.14
2023-05-12T19:18:52.875Z,16.06
2023-05-12T19:21:22.093Z,15.96
2023-05-12T19:23:52.582Z,15.90
2023-05-12T19:26:21.711Z,15.86
2023-05-12T19:28:50.965Z,15.85
2023-05-12T19:31:20.171Z,15.79
2023-05-12T19:33:49.309Z,15.69
2023-05-12T19:36:18.472Z,15.59
2023-05-12T19:38:47.704Z,15.61
2023-05-12T19:41:18.214Z,15.37
2023-05-12T19:43:47.311Z,15.41
2023-05-12T19:46:16.615Z,15.39
2023-05-12T19:48:46.083Z,15.24
2023-05-12T19:51:15.357Z,15.18
2023-05-12T19:53:44.670Z,15.15
2023-05-12T19:56:13.738Z,15.12
2023-05-12T19:58:44.397Z,14.90
2023-05-12T20:01:13.480Z,14.82
2023-05-12T20:03:42.826Z,14.79
2023-05-12T20:06:12.403Z,14.65
2023-05-12T20:08:41.584Z,14.62
2023-05-12T20:11:10.854Z,14.60
2023-05-12T20:13:39.953Z,14.51
2023-05-12T20:16:10.944Z,14.53
2023-05-12T20:18:40.347Z,14.34
2023-05-12T20:21:09.465Z,14.29
2023-05-12T20:23:38.719Z,14.21
2023-05-12T20:26:09.946Z,14.13
2023-05-12T20:28:39.126Z,14.24
2023-05-12T20:31:10.032Z,14.18
2023-05-12T20:33:39.191Z,14.12
2023-05-12T20:36:08.831Z,13.92
2023-05-12T20:38:37.992Z,13.93
2023-05-12T20:41:07.700Z,13.96
2023-05-12T20:43:37.025Z,13.84
2023-05-12T20:46:06.603Z,13.90
2023-05-12T20:48:37.145Z,13.83
2023-05-12T20:51:12.912Z,13.77
2023-05-12T20:53:42.214Z,13.75
2023-05-12T20:56:12.938Z,13.79
2023-05-12T20:58:42.220Z,13.65
2023-05-12T21:01:11.372Z,13.55
2023-05-12T21:03:42.081Z,13.59
2023-05-12T21:06:12.094Z,13.58
2023-05-12T21:08:41.252Z,13.51
2023-05-12T21:11:17.286Z,13.41
2023-05-12T21:13:47.062Z,13.39
2023-05-12T21:16:16.362Z,13.31
2023-05-12T21:18:46.909Z,13.23
2023-05-12T21:21:16.167Z,13.22
2023-05-12T21:23:45.249Z,13.22
2023-05-12T21:26:14.424Z,13.25
2023-05-12T21:28:43.589Z,13.21
2023-05-12T21:31:12.731Z,13.10
2023-05-12T21:33:41.883Z,12.96
2023-05-12T21:36:12.469Z,12.98
2023-05-12T21:38:41.563Z,12.97
2023-05-12T21:41:10.649Z,12.91
2023-05-12T21:43:39.679Z,12.88
2023-05-12T21:46:09.061Z,12.87
2023-05-12T21:48:38.173Z,12.85
2023-05-12T21:51:07.437Z,12.83
2023-05-12T21:53:37.932Z,12.84
2023-05-12T21:56:07.944Z,12.71
2023-05-12T21:58:37.124Z,12.76
2023-05-12T22:01:06.269Z,12.61
2023-05-12T22:03:35.411Z,12.64
2023-05-12T22:06:04.751Z,12.58
2023-05-12T22:08:33.841Z,12.58
2023-05-12T22:11:04.654Z,12.43
2023-05-12T22:13:33.797Z,12.43
2023-05-12T22:16:03.403Z,12.39
2023-05-12T22:18:33.315Z,12.35
2023-05-12T22:21:02.475Z,12.39
2023-05-12T22:23:31.793Z,12.39
2023-05-12T22:26:01.672Z,12.31
2023-05-12T22:28:32.204Z,12.25
2023-05-12T22:31:01.437Z,12.27
2023-05-12T22:33:31.017Z,12.23
2023-05-12T22:36:00.761Z,12.13
2023-05-12T22:38:30.107Z,12.12
2023-05-12T22:40:59.227Z,12.16
2023-05-12T22:43:28.422Z,12.14
2023-05-12T22:45:58.935Z,12.07
2023-05-12T22:48:28.627Z,12.03
2023-05-12T22:50:58.596Z,12.02
2023-05-12T22:53:27.665Z,11.96
2023-05-12T22:55:56.725Z,11.94
2023-05-12T22:58:25.820Z,11.91
2023-05-12T23:00:54.951Z,11.97
2023-05-12T23:03:25.537Z,11.89
2023-05-12T23:05:54.719Z,11.81
2023-05-12T23:08:23.744Z,11.76
2023-05-12T23:10:52.819Z,11.81
2023-05-12T23:13:22.989Z,11.76
2023-05-12T23:15:52.049Z,11.65
2023-05-12T23:18:21.192Z,11.69
2023-05-12T23:20:51.667Z,11.63
2023-05-12T23:23:20.723Z,11.61
2023-05-12T23:25:50.625Z,11.53
2023-05-12T23:28:19.737Z,11.49
2023-05-12T23:30:48.765Z,11.50
2023-05-12T23:33:18.060Z,11.42
2023-05-12T23:35:47.301Z,11.43
2023-05-12T23:38:17.712Z,11.32
2023-05-12T23:40:47.045Z,11.29
2023-05-12T23:43:16.090Z,11.23
2023-05-12T23:45:46.137Z,11.23
2023-05-12T23:48:15.187Z,11.21
2023-05-12T23:50:44.311Z,11.18
2023-05-12T23:53:13.399Z,11.19
2023-05-12T23:55:43.876Z,11.12
2023-05-12T23:58:12.924Z,11.16
